Time;durP1;ratioP1;P1;durP2;ratioP2;P2;SDS_P1;SDS_P2;PMS_P1;PMS_P2;Temp;Humidity;BMP_temperature;BMP_pressure;BME280_temperature;BME280_humidity;BME280_pressure;Samples;Min_cycle;Max_cycle;Signal;HPM_P1;HPM_P2
2021/08/03 00:01:24;;;;;;;30.63;28.27;;;11.00;99.90;;;;;;5063048;28;20466;-69
2021/08/03 00:03:56;;;;;;;33.43;30.30;;;11.00;99.90;;;;;;5059652;28;20455;-68
2021/08/03 00:06:26;;;;;;;29.17;26.90;;;11.00;99.90;;;;;;5055427;28;20574;-69
2021/08/03 00:08:57;;;;;;;29.53;27.13;;;11.00;99.90;;;;;;5058815;28;20456;-69
2021/08/03 00:11:26;;;;;;;31.47;28.67;;;11.10;99.90;;;;;;5059695;28;20550;-68
2021/08/03 00:13:53;;;;;;;32.03;28.73;;;11.00;99.90;;;;;;5059833;28;20937;-68
2021/08/03 00:16:23;;;;;;;30.07;27.60;;;11.00;99.90;;;;;;5059177;28;20478;-69
2021/08/03 00:18:51;;;;;;;29.93;27.20;;;11.00;99.90;;;;;;5062313;28;20549;-69
2021/08/03 00:21:19;;;;;;;28.23;26.03;;;11.10;99.90;;;;;;5063621;28;20689;-69
2021/08/03 00:23:47;;;;;;;29.10;26.87;;;11.10;99.90;;;;;;5058424;28;20514;-68
2021/08/03 00:26:16;;;;;;;28.57;26.23;;;11.20;99.90;;;;;;5055864;28;20487;-69
2021/08/03 00:28:46;;;;;;;28.97;26.67;;;11.30;99.90;;;;;;5057422;28;20447;-70
2021/08/03 00:31:15;;;;;;;29.33;27.03;;;11.30;99.90;;;;;;5058433;28;20454;-69
2021/08/03 00:33:46;;;;;;;28.13;25.73;;;11.40;99.90;;;;;;5057998;28;20562;-68
2021/08/03 00:36:13;;;;;;;29.63;27.37;;;11.40;99.90;;;;;;5056556;28;20460;-70
2021/08/03 00:38:39;;;;;;;30.33;27.53;;;11.50;99.90;;;;;;5056808;28;20538;-68
2021/08/03 00:41:12;;;;;;;28.23;26.00;;;11.50;99.90;;;;;;5059559;28;20467;-69
2021/08/03 00:43:39;;;;;;;30.50;27.87;;;11.50;99.90;;;;;;5057281;28;20455;-68
2021/08/03 00:46:06;;;;;;;28.87;26.57;;;11.50;99.90;;;;;;5055628;28;20494;-69
2021/08/03 00:48:33;;;;;;;28.07;25.90;;;11.50;99.90;;;;;;5057930;28;20513;-68
2021/08/03 00:51:02;;;;;;;30.60;27.50;;;11.50;99.90;;;;;;5058110;28;20521;-69
2021/08/03 00:53:30;;;;;;;32.13;28.83;;;11.60;99.90;;;;;;5056968;28;20460;-68
2021/08/03 00:55:58;;;;;;;35.10;29.17;;;11.70;99.90;;;;;;5056266;28;20968;-68
2021/08/03 00:58:25;;;;;;;29.50;26.47;;;11.80;99.90;;;;;;5054439;28;20452;-68
2021/08/03 01:00:55;;;;;;;31.27;28.37;;;11.80;99.90;;;;;;5054568;28;20815;-68
2021/08/03 01:03:22;;;;;;;29.77;27.10;;;11.80;99.90;;;;;;5055749;28;20871;-69
2021/08/03 01:05:59;;;;;;;30.13;27.67;;;11.80;99.90;;;;;;5061819;28;21144;-70
2021/08/03 01:08:41;;;;;;;30.33;27.60;;;11.70;99.90;;;;;;5049800;28;20509;-68
2021/08/03 01:11:14;;;;;;;29.90;27.40;;;11.80;99.90;;;;;;5058423;28;20539;-68
2021/08/03 01:13:54;;;;;;;28.90;26.60;;;11.90;99.90;;;;;;5056100;28;20451;-68
2021/08/03 01:16:27;;;;;;;30.03;27.30;;;11.90;99.90;;;;;;5054576;28;20487;-69
2021/08/03 01:19:00;;;;;;;29.60;27.40;;;11.90;99.90;;;;;;5054790;28;20454;-68
2021/08/03 01:21:44;;;;;;;29.80;27.03;;;12.00;99.90;;;;;;5049198;28;20455;-68
2021/08/03 01:24:30;;;;;;;31.20;28.30;;;12.00;99.90;;;;;;5060078;28;20455;-69
2021/08/03 01:27:13;;;;;;;29.27;26.53;;;12.10;99.90;;;;;;5056395;28;20494;-69
2021/08/03 01:29:45;;;;;;;28.87;26.27;;;12.10;99.90;;;;;;5057517;28;20455;-69
2021/08/03 01:32:14;;;;;;;30.63;27.63;;;12.20;99.90;;;;;;5058305;28;20458;-70
2021/08/03 01:34:45;;;;;;;28.57;26.10;;;12.20;99.90;;;;;;5057258;28;20813;-69
2021/08/03 01:37:17;;;;;;;28.60;26.30;;;12.20;99.90;;;;;;5057145;28;20459;-69
2021/08/03 01:39:46;;;;;;;25.57;23.67;;;12.20;99.90;;;;;;5053452;28;20458;-69
2021/08/03 01:42:15;;;;;;;35.77;25.60;;;12.30;99.90;;;;;;5055489;28;20467;-69
2021/08/03 01:44:44;;;;;;;35.33;26.40;;;12.40;99.90;;;;;;5053364;28;20468;-69
2021/08/03 01:47:12;;;;;;;29.20;26.43;;;12.50;99.90;;;;;;5057276;28;20499;-69
2021/08/03 01:49:42;;;;;;;31.00;28.20;;;12.60;99.90;;;;;;5059324;28;20455;-69
2021/08/03 01:52:11;;;;;;;36.40;25.77;;;12.70;99.90;;;;;;5060165;28;20462;-67
2021/08/03 01:54:38;;;;;;;36.20;27.63;;;12.70;99.90;;;;;;5053537;28;20550;-68
2021/08/03 01:57:08;;;;;;;34.77;27.70;;;12.80;99.90;;;;;;5056169;28;20456;-68
2021/08/03 01:59:35;;;;;;;31.57;26.27;;;12.90;99.90;;;;;;5050126;28;20948;-68
2021/08/03 02:02:05;;;;;;;31.60;27.47;;;12.90;99.90;;;;;;5054830;28;20464;-68
2021/08/03 02:04:34;;;;;;;33.13;27.40;;;13.00;99.90;;;;;;5055970;28;20458;-68
2021/08/03 02:07:02;;;;;;;36.70;27.83;;;13.10;99.90;;;;;;5056667;28;20490;-68
2021/08/03 02:09:32;;;;;;;38.70;31.80;;;13.10;99.90;;;;;;5054611;28;20460;-68
2021/08/03 02:11:59;;;;;;;90.67;37.70;;;13.20;99.90;;;;;;5052869;28;20487;-68
2021/08/03 02:14:26;;;;;;;44.23;34.73;;;13.20;99.90;;;;;;5058000;28;20456;-67
2021/08/03 02:16:53;;;;;;;37.10;33.40;;;13.30;99.90;;;;;;5056642;28;20845;-70
2021/08/03 02:19:21;;;;;;;36.70;32.83;;;13.30;99.90;;;;;;5058213;28;20945;-70
2021/08/03 02:21:49;;;;;;;34.67;31.03;;;13.30;99.90;;;;;;5049816;28;20456;-66
2021/08/03 02:24:15;;;;;;;35.10;31.30;;;13.40;99.90;;;;;;5053093;28;20468;-70
2021/08/03 02:26:42;;;;;;;33.43;30.13;;;13.40;99.90;;;;;;5053684;28;20828;-68
2021/08/03 02:29:10;;;;;;;45.53;32.43;;;13.30;99.90;;;;;;5054891;28;20459;-68
2021/08/03 02:31:44;;;;;;;34.67;30.67;;;13.20;99.90;;;;;;5055715;28;20471;-68
2021/08/03 02:34:16;;;;;;;36.00;31.90;;;13.20;99.90;;;;;;5060336;28;20462;-68
2021/08/03 02:36:48;;;;;;;35.37;32.00;;;13.20;99.90;;;;;;5054409;28;20451;-68
2021/08/03 02:39:18;;;;;;;36.17;32.63;;;13.20;99.90;;;;;;5058383;28;20698;-70
2021/08/03 02:41:48;;;;;;;36.47;32.80;;;13.30;99.90;;;;;;5057437;28;20849;-68
2021/08/03 02:44:16;;;;;;;35.07;31.60;;;13.30;99.90;;;;;;5058025;28;20456;-68
2021/08/03 02:46:45;;;;;;;37.77;33.17;;;13.30;99.90;;;;;;5055800;28;20496;-68
2021/08/03 02:49:14;;;;;;;36.80;32.87;;;13.10;99.90;;;;;;5053252;28;20456;-67
2021/08/03 02:51:44;;;;;;;35.57;32.23;;;13.10;99.90;;;;;;5050342;28;20452;-68
2021/08/03 02:54:23;;;;;;;35.50;32.20;;;13.10;99.90;;;;;;5057181;28;20491;-70
2021/08/03 02:56:54;;;;;;;35.97;32.27;;;13.20;99.90;;;;;;5057446;28;20832;-69
2021/08/03 02:59:23;;;;;;;41.77;35.10;;;13.20;99.90;;;;;;5055625;28;20460;-67
2021/08/03 03:01:52;;;;;;;37.63;33.23;;;13.30;99.90;;;;;;5055412;28;20950;-70
2021/08/03 03:04:24;;;;;;;37.40;34.10;;;13.30;99.90;;;;;;5054406;28;20470;-67
2021/08/03 03:06:57;;;;;;;38.10;34.00;;;13.30;99.90;;;;;;5053408;28;20478;-68
2021/08/03 03:09:29;;;;;;;37.60;34.03;;;13.30;99.90;;;;;;5047797;28;20470;-68
2021/08/03 03:11:58;;;;;;;38.67;34.23;;;13.30;99.90;;;;;;5048649;28;20459;-68
2021/08/03 03:14:27;;;;;;;38.13;32.90;;;13.30;99.90;;;;;;5048023;28;20468;-69
2021/08/03 03:16:57;;;;;;;41.77;33.73;;;13.40;99.90;;;;;;5052088;28;20480;-68
2021/08/03 03:19:26;;;;;;;37.57;33.60;;;13.50;99.90;;;;;;5054362;28;20459;-68
2021/08/03 03:21:54;;;;;;;36.80;33.47;;;13.50;99.90;;;;;;5053617;28;20463;-68
2021/08/03 03:24:23;;;;;;;34.73;31.50;;;13.50;99.90;;;;;;5057983;28;20961;-68
2021/08/03 03:26:53;;;;;;;38.57;34.43;;;13.40;99.90;;;;;;5052842;28;20507;-69
2021/08/03 03:29:21;;;;;;;37.27;33.43;;;13.40;99.90;;;;;;5052539;28;20853;-69
2021/08/03 03:31:50;;;;;;;39.27;35.27;;;13.50;99.90;;;;;;5059365;28;20448;-68
2021/08/03 03:34:21;;;;;;;36.20;32.60;;;13.50;99.90;;;;;;5056408;28;20452;-67
2021/08/03 03:36:49;;;;;;;40.97;34.60;;;13.60;99.90;;;;;;5056544;28;20466;-70
2021/08/03 03:39:17;;;;;;;39.33;35.17;;;13.60;99.90;;;;;;5050669;28;20460;-69
2021/08/03 03:41:50;;;;;;;37.43;33.90;;;13.50;99.90;;;;;;5061622;28;20460;-68
2021/08/03 03:44:18;;;;;;;37.87;33.97;;;13.60;99.90;;;;;;5047806;28;20483;-68
2021/08/03 03:46:51;;;;;;;39.37;34.33;;;13.60;99.90;;;;;;5055492;28;20877;-68
2021/08/03 03:49:23;;;;;;;45.53;34.87;;;13.60;99.90;;;;;;5054268;28;20651;-68
2021/08/03 03:51:50;;;;;;;37.73;34.30;;;13.60;99.90;;;;;;5051604;28;20459;-68
2021/08/03 03:54:25;;;;;;;36.80;32.93;;;13.70;99.90;;;;;;5051000;28;20456;-68
2021/08/03 03:56:56;;;;;;;43.10;36.10;;;13.70;99.90;;;;;;5058591;28;20455;-67
2021/08/03 03:59:26;;;;;;;38.27;34.37;;;13.60;99.90;;;;;;5047622;28;20464;-70
2021/08/03 04:01:57;;;;;;;35.53;31.87;;;13.60;99.90;;;;;;5053233;28;20550;-68
2021/08/03 04:04:26;;;;;;;37.50;33.80;;;13.60;99.90;;;;;;5057037;28;20460;-67
2021/08/03 04:06:53;;;;;;;42.13;33.93;;;13.60;99.90;;;;;;5054665;28;20477;-68
2021/08/03 04:09:22;;;;;;;41.13;35.50;;;13.50;99.90;;;;;;5051706;28;20467;-69
2021/08/03 04:11:50;;;;;;;38.10;34.50;;;13.50;99.90;;;;;;5054698;28;20459;-68
2021/08/03 04:14:22;;;;;;;38.63;34.50;;;13.60;99.90;;;;;;5056908;28;20460;-68
2021/08/03 04:16:53;;;;;;;37.57;33.93;;;13.70;99.90;;;;;;5054065;28;20846;-69
2021/08/03 04:19:21;;;;;;;38.70;34.73;;;13.70;99.90;;;;;;5054915;28;20451;-67
2021/08/03 04:21:48;;;;;;;36.83;33.10;;;13.70;99.90;;;;;;5055546;28;20529;-67
2021/08/03 04:24:16;;;;;;;40.53;36.00;;;13.60;99.90;;;;;;5048319;28;20472;-67
2021/08/03 04:26:43;;;;;;;39.17;35.50;;;13.60;99.90;;;;;;5058538;28;20452;-69
2021/08/03 04:29:12;;;;;;;37.90;34.40;;;13.60;99.90;;;;;;5046713;28;20460;-67
2021/08/03 04:31:39;;;;;;;39.17;35.77;;;13.60;99.90;;;;;;5057044;28;20460;-67
2021/08/03 04:34:07;;;;;;;38.70;35.13;;;13.60;99.90;;;;;;5057493;28;20463;-67
2021/08/03 04:36:35;;;;;;;40.70;36.40;;;13.60;99.90;;;;;;5055595;28;20814;-68
2021/08/03 04:39:02;;;;;;;43.13;38.70;;;13.60;99.90;;;;;;5055772;28;20456;-69
2021/08/03 04:41:30;;;;;;;41.17;37.33;;;13.70;99.90;;;;;;5053148;28;20547;-67
2021/08/03 04:43:57;;;;;;;41.17;37.40;;;13.60;99.90;;;;;;5057239;28;20850;-67
2021/08/03 04:46:24;;;;;;;43.70;39.03;;;13.60;99.90;;;;;;5059031;28;20495;-69
2021/08/03 04:48:51;;;;;;;41.57;37.47;;;13.60;99.90;;;;;;5054208;28;20491;-67
2021/08/03 04:51:19;;;;;;;41.83;37.47;;;13.60;99.90;;;;;;5063970;28;20806;-70
2021/08/03 04:53:46;;;;;;;41.37;37.27;;;13.60;99.90;;;;;;5054754;28;20463;-68
2021/08/03 04:56:13;;;;;;;43.10;38.23;;;13.70;99.90;;;;;;5059652;28;20543;-69
2021/08/03 04:58:41;;;;;;;56.10;39.90;;;13.60;99.90;;;;;;5057611;28;20487;-68
2021/08/03 05:01:08;;;;;;;43.93;39.43;;;13.60;99.90;;;;;;5057336;28;20563;-68
2021/08/03 05:03:35;;;;;;;44.27;39.50;;;13.60;99.90;;;;;;5058329;28;20448;-70
2021/08/03 05:06:02;;;;;;;44.00;39.70;;;13.70;99.90;;;;;;5051318;28;20470;-69
2021/08/03 05:08:30;;;;;;;45.30;39.43;;;13.70;99.90;;;;;;5054569;28;20491;-68
2021/08/03 05:10:57;;;;;;;46.90;41.80;;;13.80;99.90;;;;;;5052528;28;20460;-68
2021/08/03 05:13:25;;;;;;;44.50;39.90;;;13.80;99.90;;;;;;5055435;28;20464;-68
2021/08/03 05:15:52;;;;;;;44.37;40.10;;;13.90;99.90;;;;;;5056547;28;20889;-69
2021/08/03 05:18:19;;;;;;;43.10;38.83;;;13.90;99.90;;;;;;5053483;28;20990;-68
2021/08/03 05:20:47;;;;;;;45.70;40.33;;;13.90;99.90;;;;;;5058850;28;20459;-68
2021/08/03 05:23:14;;;;;;;45.13;40.53;;;13.80;99.90;;;;;;5050707;28;20460;-68
2021/08/03 05:25:42;;;;;;;43.83;39.53;;;13.90;99.90;;;;;;5055807;28;21026;-68
2021/08/03 05:28:10;;;;;;;44.20;39.50;;;14.10;99.90;;;;;;5054317;28;20899;-68
2021/08/03 05:30:37;;;;;;;46.03;41.43;;;14.30;99.90;;;;;;5055333;28;20453;-68
2021/08/03 05:33:04;;;;;;;45.67;40.93;;;14.30;99.90;;;;;;5057386;28;20481;-68
2021/08/03 05:35:32;;;;;;;47.53;40.67;;;14.20;99.90;;;;;;5055259;28;20462;-68
2021/08/03 05:37:59;;;;;;;47.53;41.60;;;14.20;99.90;;;;;;5055959;28;20551;-70
2021/08/03 05:40:26;;;;;;;46.17;41.30;;;14.30;99.90;;;;;;5056518;28;20949;-69
2021/08/03 05:42:54;;;;;;;45.83;40.90;;;14.40;99.90;;;;;;5054710;28;20471;-69
2021/08/03 05:45:23;;;;;;;53.33;40.93;;;14.50;99.90;;;;;;5049859;28;20468;-68
2021/08/03 05:47:50;;;;;;;42.17;38.17;;;14.50;99.90;;;;;;5051093;28;20526;-67
2021/08/03 05:50:17;;;;;;;47.63;40.20;;;14.70;99.90;;;;;;5052571;28;20456;-68
2021/08/03 05:52:44;;;;;;;50.27;40.20;;;14.60;99.90;;;;;;5055216;28;21011;-68
2021/08/03 05:55:11;;;;;;;45.90;41.10;;;14.70;99.90;;;;;;5053208;28;20463;-69
2021/08/03 05:57:39;;;;;;;45.20;39.60;;;14.70;99.90;;;;;;5054755;28;20479;-68
2021/08/03 06:00:09;;;;;;;47.33;42.30;;;14.70;99.90;;;;;;5052866;28;20471;-69
2021/08/03 06:02:36;;;;;;;49.63;41.57;;;14.70;99.90;;;;;;5054845;28;20451;-68
2021/08/03 06:05:03;;;;;;;66.07;40.43;;;14.80;99.90;;;;;;5051975;28;20833;-68
2021/08/03 06:07:35;;;;;;;55.77;42.33;;;14.80;99.90;;;;;;5055774;28;20478;-70
2021/08/03 06:10:02;;;;;;;47.43;41.50;;;14.90;99.90;;;;;;5053794;28;20463;-68
2021/08/03 06:12:34;;;;;;;46.03;41.23;;;14.90;99.90;;;;;;5050448;28;20463;-68
2021/08/03 06:15:03;;;;;;;47.40;42.30;;;14.90;99.90;;;;;;5061304;28;20464;-70
2021/08/03 06:17:36;;;;;;;47.20;40.13;;;14.90;99.90;;;;;;5058905;28;20557;-68
2021/08/03 06:20:05;;;;;;;44.27;39.90;;;14.90;99.90;;;;;;5060392;28;20536;-69
2021/08/03 06:22:36;;;;;;;45.17;40.47;;;15.00;99.90;;;;;;5060636;28;20489;-67
2021/08/03 06:25:04;;;;;;;51.33;40.47;;;14.90;99.90;;;;;;5055340;28;20463;-68
2021/08/03 06:27:32;;;;;;;47.07;41.20;;;14.90;99.90;;;;;;5052640;28;20476;-68
2021/08/03 06:30:03;;;;;;;56.40;41.87;;;15.00;99.90;;;;;;5058700;28;20461;-69
2021/08/03 06:32:32;;;;;;;45.93;40.87;;;14.90;99.90;;;;;;5053762;28;20456;-68
2021/08/03 06:35:00;;;;;;;48.10;43.10;;;14.90;99.90;;;;;;5052580;28;20448;-70
2021/08/03 06:37:27;;;;;;;45.03;40.43;;;14.90;99.90;;;;;;5058552;28;20487;-68
2021/08/03 06:39:54;;;;;;;55.00;43.17;;;15.20;99.90;;;;;;5052487;28;20451;-68
2021/08/03 06:42:35;;;;;;;46.17;40.77;;;15.40;99.90;;;;;;5049435;28;20467;-67
2021/08/03 06:45:05;;;;;;;45.57;40.80;;;15.50;99.90;;;;;;5054851;28;20463;-70
2021/08/03 06:47:44;;;;;;;47.27;42.27;;;15.80;99.90;;;;;;5054084;28;20475;-68
2021/08/03 06:50:14;;;;;;;44.80;40.40;;;16.00;99.90;;;;;;5054312;28;20451;-69
2021/08/03 06:52:40;;;;;;;50.60;42.93;;;16.10;99.90;;;;;;5051105;28;20464;-68
2021/08/03 06:55:09;;;;;;;47.40;42.30;;;16.10;99.90;;;;;;5061652;28;20455;-68
2021/08/03 06:57:43;;;;;;;49.80;42.40;;;16.30;99.90;;;;;;5057208;28;20451;-68
2021/08/03 07:00:12;;;;;;;46.33;41.50;;;16.40;99.90;;;;;;5060963;28;20462;-69
2021/08/03 07:02:46;;;;;;;53.83;43.93;;;16.50;99.90;;;;;;5053835;28;20842;-70
2021/08/03 07:05:16;;;;;;;49.43;44.17;;;16.60;99.90;;;;;;5054283;28;20466;-69
2021/08/03 07:07:45;;;;;;;46.57;41.73;;;16.70;99.90;;;;;;5050532;28;20479;-68
2021/08/03 07:10:15;;;;;;;48.07;42.97;;;16.70;99.90;;;;;;5050911;28;20508;-67
2021/08/03 07:12:44;;;;;;;49.57;44.27;;;16.70;99.90;;;;;;5055722;28;21115;-67
2021/08/03 07:15:12;;;;;;;49.70;44.30;;;16.70;99.90;;;;;;5049918;28;20464;-70
2021/08/03 07:17:42;;;;;;;47.83;42.80;;;17.00;99.90;;;;;;5048638;28;20826;-70
2021/08/03 07:20:11;;;;;;;48.43;43.27;;;16.90;99.90;;;;;;5057311;28;20906;-68
2021/08/03 07:22:39;;;;;;;48.27;43.53;;;17.00;99.90;;;;;;5056785;28;20467;-68
2021/08/03 07:25:07;;;;;;;48.60;43.50;;;17.00;99.90;;;;;;5056132;28;20529;-70
2021/08/03 07:27:35;;;;;;;48.40;42.73;;;16.90;99.90;;;;;;5051253;28;20459;-69
2021/08/03 07:30:02;;;;;;;47.70;42.60;;;17.00;99.90;;;;;;5056373;28;20459;-68
2021/08/03 07:32:29;;;;;;;45.70;41.07;;;17.20;99.90;;;;;;5059560;28;20619;-68
2021/08/03 07:34:59;;;;;;;44.07;39.63;;;17.30;99.90;;;;;;5053996;28;20452;-69
2021/08/03 07:37:27;;;;;;;44.10;39.60;;;17.50;99.90;;;;;;5052213;28;20949;-69
2021/08/03 07:39:54;;;;;;;43.67;39.33;;;17.50;99.90;;;;;;5053821;28;20455;-68
2021/08/03 07:42:21;;;;;;;41.97;38.07;;;17.60;99.90;;;;;;5057091;28;20459;-68
2021/08/03 07:44:49;;;;;;;43.00;37.67;;;17.60;99.90;;;;;;5055323;28;20456;-70
2021/08/03 07:47:16;;;;;;;41.03;37.30;;;17.50;99.90;;;;;;5060578;28;20565;-68
2021/08/03 07:49:46;;;;;;;41.07;37.20;;;17.50;99.90;;;;;;5050849;28;20483;-70
2021/08/03 07:52:15;;;;;;;40.43;36.73;;;17.30;99.90;;;;;;5051370;28;20464;-69
2021/08/03 07:54:42;;;;;;;42.40;37.97;;;17.20;99.90;;;;;;5052700;28;20450;-69
2021/08/03 07:57:09;;;;;;;41.40;37.70;;;17.20;99.90;;;;;;5054194;28;20954;-68
2021/08/03 07:59:37;;;;;;;39.07;35.30;;;17.20;99.90;;;;;;5055537;28;20467;-68
2021/08/03 08:02:04;;;;;;;39.07;35.57;;;17.30;99.90;;;;;;5054486;28;20457;-69
2021/08/03 08:04:31;;;;;;;40.73;37.03;;;17.20;99.90;;;;;;5047743;28;20467;-68
2021/08/03 08:06:57;;;;;;;38.33;35.13;;;17.30;99.90;;;;;;5056370;28;20455;-69
2021/08/03 08:09:25;;;;;;;37.33;33.80;;;17.50;99.90;;;;;;5056952;28;20470;-68
2021/08/03 08:11:53;;;;;;;36.07;33.13;;;17.70;99.90;;;;;;5057422;28;20454;-68
2021/08/03 08:14:20;;;;;;;37.70;34.43;;;17.70;99.90;;;;;;5055040;28;20451;-68
2021/08/03 08:16:47;;;;;;;36.17;33.07;;;17.70;99.90;;;;;;5074264;28;21107;-70
2021/08/03 08:19:14;;;;;;;36.23;33.27;;;17.90;99.90;;;;;;5050646;28;20536;-68
2021/08/03 08:21:42;;;;;;;34.03;31.00;;;18.30;99.90;;;;;;5052336;28;20463;-68
2021/08/03 08:24:09;;;;;;;33.13;30.20;;;18.40;99.90;;;;;;5050959;28;20852;-70
2021/08/03 08:26:37;;;;;;;32.23;29.60;;;18.50;99.90;;;;;;5056408;28;20460;-69
2021/08/03 08:29:04;;;;;;;32.03;29.33;;;18.90;99.90;;;;;;5053922;28;20853;-69
2021/08/03 08:31:31;;;;;;;32.83;29.97;;;19.30;99.90;;;;;;5051737;28;21306;-69
2021/08/03 08:33:58;;;;;;;30.60;28.23;;;19.70;99.90;;;;;;5050269;28;20464;-70
2021/08/03 08:36:26;;;;;;;29.73;27.43;;;19.90;99.90;;;;;;5053916;28;20463;-69
2021/08/03 08:38:53;;;;;;;27.70;25.80;;;20.30;99.90;;;;;;5057111;28;20953;-68
2021/08/03 08:41:22;;;;;;;27.23;25.33;;;20.70;99.90;;;;;;5053868;28;20464;-72
2021/08/03 08:43:52;;;;;;;27.87;25.67;;;20.70;99.90;;;;;;5053609;28;20467;-69
2021/08/03 08:46:20;;;;;;;26.33;24.37;;;21.60;99.90;;;;;;5062897;28;20486;-69
2021/08/03 08:48:49;;;;;;;26.10;24.10;;;21.50;99.90;;;;;;5054155;28;20486;-69
2021/08/03 08:51:17;;;;;;;26.50;24.70;;;21.60;99.90;;;;;;5050274;28;20464;-69
2021/08/03 08:53:43;;;;;;;26.57;24.53;;;21.40;99.90;;;;;;5052785;28;20464;-69
2021/08/03 08:56:12;;;;;;;25.00;23.10;;;21.30;99.90;;;;;;5057781;28;20470;-69
2021/08/03 08:58:43;;;;;;;24.83;23.07;;;21.70;99.90;;;;;;5050790;28;20467;-72
2021/08/03 09:01:11;;;;;;;24.87;22.83;;;21.80;99.90;;;;;;5054763;28;20604;-71
2021/08/03 09:03:38;;;;;;;24.00;22.13;;;22.00;99.90;;;;;;5047023;28;20534;-69
2021/08/03 09:06:06;;;;;;;24.60;22.60;;;21.90;99.90;;;;;;5047198;28;20467;-69
2021/08/03 09:08:39;;;;;;;22.83;21.23;;;21.90;99.90;;;;;;5049874;28;20483;-68
2021/08/03 09:11:07;;;;;;;22.90;21.40;;;21.90;99.90;;;;;;5045638;28;20544;-70
2021/08/03 09:13:51;;;;;;;23.20;21.40;;;21.80;99.90;;;;;;5050721;28;20805;-69
2021/08/03 09:16:21;;;;;;;23.50;21.63;;;21.60;99.90;;;;;;5055446;28;20828;-69
2021/08/03 09:18:48;;;;;;;24.27;21.80;;;21.60;99.90;;;;;;5051531;28;20471;-69
2021/08/03 09:21:24;;;;;;;21.43;20.03;;;21.80;99.90;;;;;;5053018;28;20578;-69
2021/08/03 09:23:53;;;;;;;22.00;19.90;;;21.90;99.90;;;;;;5050770;28;20454;-69
2021/08/03 09:26:21;;;;;;;22.67;20.90;;;21.90;99.90;;;;;;5054348;28;20975;-70
2021/08/03 09:29:00;;;;;;;22.57;21.07;;;21.90;99.90;;;;;;5052271;28;20945;-69
2021/08/03 09:31:29;;;;;;;21.20;19.70;;;21.90;99.90;;;;;;5053667;28;20460;-69
2021/08/03 09:33:57;;;;;;;20.47;19.03;;;22.00;99.90;;;;;;5049907;28;20467;-69
2021/08/03 09:36:44;;;;;;;21.13;19.43;;;22.10;99.90;;;;;;5051003;28;20456;-67
2021/08/03 09:39:45;;;;;;;22.27;20.47;;;22.00;99.90;;;;;;5050592;28;20464;-71
2021/08/03 09:42:14;;;;;;;21.73;20.00;;;22.00;99.90;;;;;;5051576;28;20456;-70
2021/08/03 09:44:50;;;;;;;22.03;19.80;;;21.80;99.90;;;;;;5049369;28;20942;-69
2021/08/03 09:47:18;;;;;;;21.87;20.00;;;21.80;99.90;;;;;;5048646;28;20475;-69
2021/08/03 09:49:49;;;;;;;21.73;20.13;;;21.70;99.90;;;;;;5053286;28;20506;-69
2021/08/03 09:52:17;;;;;;;21.73;20.00;;;21.80;99.90;;;;;;5056750;28;20459;-69
2021/08/03 09:54:46;;;;;;;25.73;23.87;;;21.70;99.90;;;;;;5052185;28;21005;-67
2021/08/03 09:57:24;;;;;;;37.37;34.27;;;22.00;99.90;;;;;;5054400;28;20466;-68
2021/08/03 09:59:53;;;;;;;40.07;36.60;;;21.50;99.90;;;;;;5049795;28;20470;-71
2021/08/03 10:02:22;;;;;;;42.57;38.03;;;21.10;99.90;;;;;;5054704;28;20815;-68
2021/08/03 10:04:50;;;;;;;43.23;38.90;;;20.50;99.90;;;;;;5049100;28;20458;-70
2021/08/03 10:07:18;;;;;;;42.97;38.67;;;20.10;99.90;;;;;;5057776;28;20463;-69
2021/08/03 10:09:48;;;;;;;43.97;39.63;;;19.90;99.90;;;;;;5054597;28;21071;-68
2021/08/03 10:12:15;;;;;;;43.50;39.40;;;19.60;99.90;;;;;;5050141;28;20461;-69
2021/08/03 10:14:44;;;;;;;43.47;39.30;;;19.40;99.90;;;;;;5053423;28;20476;-68
2021/08/03 10:17:13;;;;;;;41.47;37.90;;;19.00;99.90;;;;;;5057771;28;20487;-68
2021/08/03 10:19:40;;;;;;;40.63;36.93;;;18.80;99.90;;;;;;5045827;28;20475;-67
2021/08/03 10:22:16;;;;;;;41.87;37.50;;;18.60;99.90;;;;;;5051326;28;20728;-67
2021/08/03 10:24:56;;;;;;;41.53;36.80;;;18.30;99.90;;;;;;5045610;28;20491;-69
2021/08/03 10:27:23;;;;;;;37.40;34.13;;;18.20;99.90;;;;;;5049681;28;20463;-71
2021/08/03 10:29:52;;;;;;;38.60;34.80;;;18.00;99.90;;;;;;5049323;28;20924;-68
2021/08/03 10:32:39;;;;;;;37.47;33.70;;;17.90;99.90;;;;;;5049840;28;20601;-67
2021/08/03 10:35:13;;;;;;;37.67;33.80;;;17.90;99.90;;;;;;5057138;28;20475;-70
2021/08/03 10:38:06;;;;;;;38.90;35.40;;;17.90;99.90;;;;;;5058227;28;20809;-68
2021/08/03 10:41:16;;;;;;;35.50;32.30;;;17.70;99.90;;;;;;5057149;28;20455;-67
2021/08/03 10:43:51;;;;;;;33.40;30.60;;;17.80;99.90;;;;;;5054847;28;20538;-68
2021/08/03 10:46:36;;;;;;;28.47;26.13;;;17.80;99.90;;;;;;5057517;28;20466;-68
2021/08/03 10:49:04;;;;;;;21.97;20.47;;;17.80;99.90;;;;;;5052939;28;20476;-66
2021/08/03 10:51:47;;;;;;;22.20;20.70;;;18.00;99.90;;;;;;5050776;28;20467;-69
2021/08/03 10:54:16;;;;;;;22.90;21.30;;;17.90;99.90;;;;;;5047625;28;20983;-70
2021/08/03 10:57:20;;;;;;;22.53;20.93;;;17.70;99.90;;;;;;5047154;28;20466;-69
2021/08/03 11:00:01;;;;;;;21.33;19.93;;;17.70;99.90;;;;;;5048582;28;20484;-68
2021/08/03 11:02:46;;;;;;;20.70;19.40;;;17.90;99.90;;;;;;5059508;28;20462;-68
2021/08/03 11:05:33;;;;;;;20.70;19.40;;;17.90;99.90;;;;;;5049651;28;21017;-71
2021/08/03 11:08:37;;;;;;;20.47;19.17;;;18.10;99.90;;;;;;5049051;28;20535;-68
2021/08/03 11:11:06;;;;;;;19.77;18.57;;;18.40;99.90;;;;;;5049290;28;20462;-68
2021/08/03 11:13:41;;;;;;;19.87;18.67;;;18.60;99.90;;;;;;5051405;28;21005;-68
2021/08/03 11:16:53;;;;;;;20.50;19.20;;;18.80;99.90;;;;;;5051085;28;20483;-68
2021/08/03 11:19:33;;;;;;;19.47;18.27;;;18.90;99.90;;;;;;5046435;28;20909;-68
2021/08/03 11:22:00;;;;;;;19.33;18.23;;;19.30;99.90;;;;;;5046164;28;20460;-70
2021/08/03 11:24:36;;;;;;;18.97;17.87;;;19.30;99.90;;;;;;5050977;28;20463;-69
2021/08/03 11:27:04;;;;;;;18.77;17.77;;;19.30;99.90;;;;;;5042395;28;20482;-68
2021/08/03 11:29:37;;;;;;;17.90;16.97;;;19.50;99.90;;;;;;5050757;28;20487;-68
2021/08/03 11:32:06;;;;;;;18.33;17.33;;;19.70;99.90;;;;;;5056318;28;20845;-70
2021/08/03 11:34:35;;;;;;;19.30;18.30;;;20.00;99.90;;;;;;5051119;28;20459;-68
2021/08/03 11:37:21;;;;;;;18.70;17.70;;;20.20;99.90;;;;;;5051591;28;20559;-68
2021/08/03 11:39:51;;;;;;;19.00;18.00;;;20.40;99.90;;;;;;5050452;28;20479;-68
2021/08/03 11:42:32;;;;;;;19.00;18.00;;;20.60;99.90;;;;;;5061149;28;20957;-67
2021/08/03 11:45:08;;;;;;;19.10;18.10;;;20.60;99.90;;;;;;5052308;28;20466;-68
2021/08/03 11:47:41;;;;;;;19.13;18.13;;;20.30;99.90;;;;;;5054415;28;20443;-70
2021/08/03 11:50:09;;;;;;;19.63;18.53;;;19.80;99.90;;;;;;5053541;28;20562;-70
2021/08/03 11:52:36;;;;;;;30.43;28.10;;;19.60;99.90;;;;;;5052723;28;20459;-68
2021/08/03 11:55:03;;;;;;;31.97;29.67;;;19.50;99.90;;;;;;5052532;28;20450;-70
2021/08/03 11:57:37;;;;;;;31.03;28.43;;;19.40;99.90;;;;;;5053367;28;20447;-71
2021/08/03 12:00:13;;;;;;;31.50;28.87;;;19.60;99.90;;;;;;5053529;28;20447;-68
2021/08/03 12:02:43;;;;;;;30.97;28.63;;;19.80;99.90;;;;;;5054281;28;20533;-68
2021/08/03 12:05:18;;;;;;;30.70;28.07;;;20.10;99.90;;;;;;5053562;28;20448;-68
2021/08/03 12:07:52;;;;;;;29.80;27.53;;;19.80;99.90;;;;;;5052094;28;20806;-68
2021/08/03 12:10:21;;;;;;;30.03;28.00;;;19.70;99.90;;;;;;5053315;28;20534;-69
2021/08/03 12:12:49;;;;;;;29.70;27.03;;;19.80;99.90;;;;;;5053154;28;20623;-70
2021/08/03 12:15:18;;;;;;;29.70;27.60;;;19.60;99.90;;;;;;5053478;28;20456;-70
2021/08/03 12:17:48;;;;;;;27.33;25.43;;;19.60;99.90;;;;;;5053719;28;20451;-68
2021/08/03 12:23:38;;;;;;;26.93;25.03;;;19.70;99.90;;;;;;5052720;28;20447;-70
2021/08/03 12:26:07;;;;;;;29.27;26.77;;;19.50;99.90;;;;;;5052182;28;20803;-68
2021/08/03 12:28:39;;;;;;;26.70;24.80;;;19.60;99.90;;;;;;5052160;28;20459;-67
2021/08/03 12:31:17;;;;;;;26.63;24.83;;;19.50;99.90;;;;;;5053330;28;20484;-68
2021/08/03 12:33:46;;;;;;;25.90;24.10;;;19.40;99.90;;;;;;5052812;28;20774;-68
2021/08/03 12:36:16;;;;;;;26.63;24.83;;;19.30;99.90;;;;;;5052956;28;20927;-68
2021/08/03 12:38:44;;;;;;;24.23;22.50;;;19.30;99.90;;;;;;5052839;28;20509;-67
2021/08/03 12:41:19;;;;;;;23.00;21.50;;;19.40;99.90;;;;;;5052513;28;20551;-70
2021/08/03 12:43:46;;;;;;;23.00;21.50;;;19.50;99.90;;;;;;5052181;28;20451;-67
2021/08/03 12:46:14;;;;;;;22.60;21.00;;;19.80;99.90;;;;;;5049543;28;21017;-68
2021/08/03 12:48:52;;;;;;;23.10;21.50;;;20.10;99.90;;;;;;5057704;28;20459;-70